Time;durP1;ratioP1;P1;durP2;ratioP2;P2;SDS_P1;SDS_P2;PMS_P1;PMS_P2;Temp;Humidity;BMP_temperature;BMP_pressure;BME280_temperature;BME280_humidity;BME280_pressure;Samples;Min_cycle;Max_cycle;Signal;HPM_P1;HPM_P2
2022/03/12 00:02:32;;;;;;;59.83;22.48;;;;;;;;;;10311357;28;20058;-66
2022/03/12 00:07:35;;;;;;;62.17;22.50;;;;;;;;;;10309366;28;20342;-67
2022/03/12 00:12:39;;;;;;;57.72;21.05;;;;;;;;;;10310442;28;20086;-67
2022/03/12 00:17:45;;;;;;;57.47;21.52;;;;;;;;;;10311077;28;20066;-67
2022/03/12 00:22:51;;;;;;;50.92;19.85;;;;;;;;;;10310734;28;20055;-67
2022/03/12 00:27:55;;;;;;;50.90;21.25;;;;;;;;;;10310680;28;20062;-67
2022/03/12 00:32:58;;;;;;;60.58;21.50;;;;;;;;;;10310358;28;20117;-67
2022/03/12 00:38:00;;;;;;;52.65;21.52;;;;;;;;;;10309441;28;20074;-68
2022/03/12 00:43:05;;;;;;;47.00;19.10;;;;;;;;;;10312230;28;20055;-67
2022/03/12 00:48:07;;;;;;;51.88;18.73;;;;;;;;;;10311425;28;20042;-67
2022/03/12 00:53:10;;;;;;;50.08;18.42;;;;;;;;;;10318603;28;20049;-67
2022/03/12 00:58:13;;;;;;;51.60;18.83;;;;;;;;;;10317645;28;20086;-67
2022/03/12 01:03:16;;;;;;;51.97;18.83;;;;;;;;;;10316905;28;20245;-68
2022/03/12 01:08:20;;;;;;;44.05;18.23;;;;;;;;;;10316919;28;20337;-67
2022/03/12 01:13:25;;;;;;;49.95;18.73;;;;;;;;;;10316514;28;20215;-67
2022/03/12 01:18:28;;;;;;;42.35;18.52;;;;;;;;;;10316699;28;20050;-67
2022/03/12 01:23:31;;;;;;;49.92;19.88;;;;;;;;;;10316131;28;20062;-67
2022/03/12 01:28:35;;;;;;;45.38;19.35;;;;;;;;;;10316585;28;20341;-67
2022/03/12 01:33:37;;;;;;;45.58;19.00;;;;;;;;;;10315242;28;20061;-67
2022/03/12 01:38:48;;;;;;;55.50;20.40;;;;;;;;;;10315339;28;20055;-66
2022/03/12 01:43:53;;;;;;;48.13;19.48;;;;;;;;;;10328700;28;20047;-67
2022/03/12 01:48:56;;;;;;;49.08;20.02;;;;;;;;;;10315187;28;20051;-67
2022/03/12 01:53:58;;;;;;;49.67;18.92;;;;;;;;;;10314500;28;20057;-68
2022/03/12 01:59:02;;;;;;;47.63;21.58;;;;;;;;;;10315976;28;20059;-68
2022/03/12 02:04:07;;;;;;;51.63;21.70;;;;;;;;;;10314515;28;20054;-67
2022/03/12 02:09:14;;;;;;;56.83;23.77;;;;;;;;;;10328781;28;20042;-67
2022/03/12 02:14:20;;;;;;;51.95;22.95;;;;;;;;;;10315550;28;20062;-66
2022/03/12 02:19:25;;;;;;;59.00;23.75;;;;;;;;;;10314977;28;20058;-67
2022/03/12 02:24:30;;;;;;;;;;;;;;;;;;10329086;28;20051;-67
2022/03/12 02:29:34;;;;;;;53.97;23.55;;;;;;;;;;10314833;28;20145;-67
2022/03/12 02:34:42;;;;;;;89.38;30.77;;;;;;;;;;10312177;28;20334;-67
2022/03/12 02:39:47;;;;;;;55.38;23.55;;;;;;;;;;10313436;28;20353;-67
2022/03/12 02:44:50;;;;;;;48.27;21.23;;;;;;;;;;10313367;28;20059;-67
2022/03/12 02:49:56;;;;;;;43.72;19.15;;;;;;;;;;10312882;28;20058;-67
2022/03/12 02:55:01;;;;;;;48.00;18.17;;;;;;;;;;10313923;28;20330;-67
2022/03/12 03:00:06;;;;;;;47.90;19.02;;;;;;;;;;10327006;28;20069;-67
2022/03/12 03:05:33;;;;;;;45.55;18.75;;;;;;;;;;10311092;28;20046;-67
2022/03/12 03:10:39;;;;;;;46.05;17.85;;;;;;;;;;10272851;29;20051;-67
2022/03/12 03:15:41;;;;;;;43.45;17.58;;;;;;;;;;10291204;28;20054;-68
2022/03/12 03:20:44;;;;;;;39.30;18.30;;;;;;;;;;10311210;28;20097;-67
2022/03/12 03:25:48;;;;;;;41.85;18.10;;;;;;;;;;10309408;28;20046;-67
2022/03/12 03:30:50;;;;;;;41.63;17.27;;;;;;;;;;10311472;28;20051;-67
2022/03/12 03:35:53;;;;;;;42.03;18.50;;;;;;;;;;10311020;28;20093;-67
2022/03/12 03:40:57;;;;;;;39.85;17.92;;;;;;;;;;10309305;28;20081;-68
2022/03/12 03:45:59;;;;;;;47.20;19.17;;;;;;;;;;10310506;28;20102;-67
2022/03/12 03:51:02;;;;;;;44.42;18.40;;;;;;;;;;10310012;28;20388;-67
2022/03/12 03:56:06;;;;;;;48.92;20.15;;;;;;;;;;10310192;28;20051;-65
2022/03/12 04:01:11;;;;;;;42.75;18.30;;;;;;;;;;10309448;28;20105;-67
2022/03/12 04:06:13;;;;;;;44.20;18.00;;;;;;;;;;10322747;28;20436;-67
2022/03/12 04:11:19;;;;;;;41.92;18.25;;;;;;;;;;10309482;28;20054;-68
2022/03/12 04:16:21;;;;;;;;;;;;;;;;;;10323319;28;20332;-67
2022/03/12 04:21:24;;;;;;;44.17;19.08;;;;;;;;;;10309127;28;20066;-67
2022/03/12 04:26:30;;;;;;;56.53;21.75;;;;;;;;;;10311089;28;20241;-67
2022/03/12 04:31:33;;;;;;;53.60;22.05;;;;;;;;;;10330639;28;20077;-67
2022/03/12 04:36:36;;;;;;;59.35;22.10;;;;;;;;;;10316928;28;20039;-67
2022/03/12 04:41:40;;;;;;;59.35;24.13;;;;;;;;;;10316951;28;20055;-67
2022/03/12 04:46:43;;;;;;;56.63;23.88;;;;;;;;;;10317128;28;20272;-67
2022/03/12 04:51:45;;;;;;;48.80;20.95;;;;;;;;;;10316664;28;20069;-67
2022/03/12 04:56:50;;;;;;;51.10;20.67;;;;;;;;;;10316887;28;20089;-67
2022/03/12 05:01:53;;;;;;;48.50;20.10;;;;;;;;;;10329938;28;20255;-67
2022/03/12 05:06:56;;;;;;;51.85;22.40;;;;;;;;;;10316905;28;20055;-67
2022/03/12 05:12:05;;;;;;;52.03;21.20;;;;;;;;;;10316055;28;20050;-67
2022/03/12 05:17:08;;;;;;;47.70;20.50;;;;;;;;;;10329522;28;20043;-66
2022/03/12 05:22:10;;;;;;;65.10;21.63;;;;;;;;;;10315641;28;20379;-68
2022/03/12 05:27:17;;;;;;;51.20;20.65;;;;;;;;;;10315059;28;20230;-67
2022/03/12 05:32:20;;;;;;;55.95;23.52;;;;;;;;;;10317068;28;20071;-68
2022/03/12 05:37:22;;;;;;;63.22;29.45;;;;;;;;;;10314826;28;20137;-67
2022/03/12 05:42:27;;;;;;;66.00;32.28;;;;;;;;;;10314650;28;20055;-67
2022/03/12 05:47:36;;;;;;;67.70;33.13;;;;;;;;;;10313773;28;20080;-68
2022/03/12 05:52:39;;;;;;;64.45;32.35;;;;;;;;;;10314238;28;20337;-68
2022/03/12 05:57:44;;;;;;;60.38;29.88;;;;;;;;;;10314635;28;20186;-67
2022/03/12 06:02:49;;;;;;;56.15;27.45;;;;;;;;;;10313606;28;20047;-67
2022/03/12 06:07:53;;;;;;;50.40;23.42;;;;;;;;;;10314229;28;20203;-68
2022/03/12 06:12:58;;;;;;;39.85;21.45;;;;;;;;;;10311105;28;20306;-71
2022/03/12 06:18:00;;;;;;;32.45;18.90;;;;;;;;;;10314539;28;20047;-70
2022/03/12 06:23:02;;;;;;;38.05;20.83;;;;;;;;;;10311846;28;20046;-68
2022/03/12 06:28:07;;;;;;;53.97;28.50;;;;;;;;;;10313434;28;20242;-69
2022/03/12 06:33:10;;;;;;;45.42;23.45;;;;;;;;;;10291173;28;20047;-68
2022/03/12 06:38:14;;;;;;;61.92;22.75;;;;;;;;;;10302081;28;20070;-68
2022/03/12 06:43:19;;;;;;;37.35;18.15;;;;;;;;;;10312290;28;20336;-69
2022/03/12 06:48:22;;;;;;;25.83;16.27;;;;;;;;;;10323678;28;20035;-69
2022/03/12 06:53:24;;;;;;;27.70;16.55;;;;;;;;;;10312629;28;20074;-68
2022/03/12 06:58:29;;;;;;;24.90;15.20;;;;;;;;;;10312052;28;20227;-70
2022/03/12 07:03:32;;;;;;;26.85;15.65;;;;;;;;;;10312028;28;20293;-68
2022/03/12 07:08:34;;;;;;;24.42;14.35;;;;;;;;;;10310155;28;20051;-71
2022/03/12 07:13:38;;;;;;;23.33;13.75;;;;;;;;;;10310974;28;20270;-66
2022/03/12 07:18:40;;;;;;;27.65;13.57;;;;;;;;;;10310873;28;20043;-70
2022/03/12 07:23:43;;;;;;;20.35;12.93;;;;;;;;;;10310935;28;20329;-68
2022/03/12 07:28:48;;;;;;;18.02;11.63;;;;;;;;;;10310348;28;20062;-69
2022/03/12 07:33:50;;;;;;;21.88;12.35;;;;;;;;;;10310682;28;20054;-68
2022/03/12 07:38:53;;;;;;;18.63;11.50;;;;;;;;;;10309462;28;20058;-68
2022/03/12 07:43:57;;;;;;;20.30;11.07;;;;;;;;;;10311416;28;20043;-70
2022/03/12 07:48:59;;;;;;;18.48;13.15;;;;;;;;;;10310036;28;20270;-67
2022/03/12 07:54:06;;;;;;;15.60;9.93;;;;;;;;;;10310209;28;20067;-68
2022/03/12 07:59:10;;;;;;;16.85;9.75;;;;;;;;;;10309241;28;20321;-69
2022/03/12 08:04:13;;;;;;;15.80;9.50;;;;;;;;;;10309917;28;20054;-70
2022/03/12 08:09:15;;;;;;;15.48;10.40;;;;;;;;;;10309890;28;20295;-70
2022/03/12 08:14:22;;;;;;;11.88;9.20;;;;;;;;;;10309622;28;20137;-69
2022/03/12 08:19:25;;;;;;;12.13;9.25;;;;;;;;;;10321126;28;20042;-69
2022/03/12 08:24:28;;;;;;;13.10;9.27;;;;;;;;;;10308025;28;20047;-68
2022/03/12 08:29:31;;;;;;;16.33;10.52;;;;;;;;;;10309111;28;20062;-69
2022/03/12 08:34:34;;;;;;;14.98;9.10;;;;;;;;;;10308777;28;20058;-69
2022/03/12 08:39:37;;;;;;;15.25;9.10;;;;;;;;;;10309156;28;20074;-70
2022/03/12 08:44:41;;;;;;;12.20;8.48;;;;;;;;;;10308298;28;20172;-69
2022/03/12 08:49:43;;;;;;;23.20;9.40;;;;;;;;;;10307493;28;20050;-68
2022/03/12 08:54:45;;;;;;;11.73;8.15;;;;;;;;;;10308567;28;20055;-70
2022/03/12 08:59:49;;;;;;;13.10;8.20;;;;;;;;;;10307509;28;20051;-69
2022/03/12 09:04:52;;;;;;;14.95;8.98;;;;;;;;;;10308074;28;20124;-69
2022/03/12 09:09:55;;;;;;;15.93;8.73;;;;;;;;;;10308167;28;20039;-71
2022/03/12 09:14:59;;;;;;;13.80;8.70;;;;;;;;;;10314508;28;20053;-69
2022/03/12 09:20:01;;;;;;;14.68;9.27;;;;;;;;;;10313919;28;20105;-69
2022/03/12 09:25:08;;;;;;;14.65;8.60;;;;;;;;;;10314371;28;20097;-69
2022/03/12 09:30:15;;;;;;;16.92;10.07;;;;;;;;;;10327897;28;20042;-69
2022/03/12 09:35:19;;;;;;;18.45;10.65;;;;;;;;;;10323616;28;20119;-67
2022/03/12 09:40:23;;;;;;;29.38;12.65;;;;;;;;;;10314865;28;20122;-67
2022/03/12 09:45:27;;;;;;;21.83;12.57;;;;;;;;;;10314942;28;20061;-66
2022/03/12 09:50:29;;;;;;;28.93;14.17;;;;;;;;;;10313831;28;20047;-68
2022/03/12 09:55:32;;;;;;;26.65;12.93;;;;;;;;;;10313536;28;20051;-69
2022/03/12 10:00:36;;;;;;;27.65;12.57;;;;;;;;;;10313956;28;20330;-69
2022/03/12 10:05:39;;;;;;;22.90;10.95;;;;;;;;;;10314473;28;20066;-68
2022/03/12 10:10:41;;;;;;;22.05;13.50;;;;;;;;;;10313255;28;20054;-70
2022/03/12 10:15:45;;;;;;;24.67;11.57;;;;;;;;;;10313862;28;20289;-67
2022/03/12 10:20:47;;;;;;;21.67;12.07;;;;;;;;;;10314315;28;20047;-70
2022/03/12 10:25:50;;;;;;;24.10;11.82;;;;;;;;;;10314774;28;20042;-70
2022/03/12 10:30:54;;;;;;;18.33;10.75;;;;;;;;;;10318560;28;20345;-71
2022/03/12 10:36:10;;;;;;;25.17;10.38;;;;;;;;;;10317089;28;20061;-69
2022/03/12 10:41:13;;;;;;;22.25;10.75;;;;;;;;;;10316398;28;20062;-71
2022/03/12 10:46:23;;;;;;;27.25;12.93;;;;;;;;;;10308421;28;20046;-69
2022/03/12 10:51:26;;;;;;;23.52;11.50;;;;;;;;;;10325687;28;21414;-68
2022/03/12 10:56:43;;;;;;;21.48;11.27;;;;;;;;;;10315394;28;20269;-68
2022/03/12 11:01:55;;;;;;;23.30;10.85;;;;;;;;;;10314025;28;20372;-69
2022/03/12 11:07:01;;;;;;;21.17;10.85;;;;;;;;;;10308614;28;20408;-68
2022/03/12 11:12:04;;;;;;;21.95;10.27;;;;;;;;;;10311484;28;20136;-67
2022/03/12 11:17:09;;;;;;;22.15;10.38;;;;;;;;;;10309744;28;20305;-69
2022/03/12 11:22:13;;;;;;;23.63;11.47;;;;;;;;;;10311284;28;20051;-67
2022/03/12 11:27:30;;;;;;;26.55;10.73;;;;;;;;;;10310534;28;20057;-68
2022/03/12 11:32:35;;;;;;;20.73;10.73;;;;;;;;;;10324847;28;20044;-69
2022/03/12 11:37:41;;;;;;;21.10;11.07;;;;;;;;;;10311882;28;20360;-68
2022/03/12 11:42:43;;;;;;;18.70;10.57;;;;;;;;;;10313097;28;20050;-67
2022/03/12 11:47:47;;;;;;;20.65;10.48;;;;;;;;;;10312424;28;20074;-67
2022/03/12 11:52:52;;;;;;;22.02;10.60;;;;;;;;;;10313788;28;20058;-67
2022/03/12 11:57:58;;;;;;;21.27;10.70;;;;;;;;;;10312310;28;20047;-67
2022/03/12 12:03:02;;;;;;;20.63;10.98;;;;;;;;;;10312465;28;20047;-66
2022/03/12 12:08:05;;;;;;;19.83;10.57;;;;;;;;;;10314345;28;20078;-67
2022/03/12 12:13:08;;;;;;;20.05;11.20;;;;;;;;;;10302598;28;20346;-68
2022/03/12 12:18:14;;;;;;;21.13;9.60;;;;;;;;;;10312636;28;20050;-68
2022/03/12 12:23:18;;;;;;;19.80;11.00;;;;;;;;;;10293704;28;20054;-67
2022/03/12 12:28:22;;;;;;;18.63;10.27;;;;;;;;;;10311755;28;20119;-67
2022/03/12 12:33:30;;;;;;;21.20;9.75;;;;;;;;;;10310963;28;20285;-68
2022/03/12 12:38:33;;;;;;;21.25;9.90;;;;;;;;;;10311390;28;20249;-67
2022/03/12 12:43:39;;;;;;;24.40;12.55;;;;;;;;;;10310048;28;20072;-66
2022/03/12 12:48:48;;;;;;;30.40;13.75;;;;;;;;;;10314943;28;20068;-67
2022/03/12 12:53:51;;;;;;;22.60;10.80;;;;;;;;;;10323972;28;20109;-68
2022/03/12 12:59:18;;;;;;;18.30;8.80;;;;;;;;;;10318384;28;20109;-69
2022/03/12 13:04:50;;;;;;;20.92;9.73;;;;;;;;;;10299894;28;20065;-67
2022/03/12 13:10:00;;;;;;;16.05;9.43;;;;;;;;;;10332680;28;20043;-68
2022/03/12 13:15:04;;;;;;;15.93;7.75;;;;;;;;;;10317004;28;20404;-66
2022/03/12 13:20:42;;;;;;;23.63;10.43;;;;;;;;;;10314646;28;20050;-65
2022/03/12 13:25:47;;;;;;;21.27;8.55;;;;;;;;;;10329563;28;20110;-66
2022/03/12 13:30:50;;;;;;;21.70;8.32;;;;;;;;;;10330562;28;20065;-67
2022/03/12 13:35:54;;;;;;;28.60;14.75;;;;;;;;;;10317102;28;20054;-65
2022/03/12 13:40:57;;;;;;;15.50;7.88;;;;;;;;;;10316523;28;20146;-66
2022/03/12 13:46:00;;;;;;;15.77;8.13;;;;;;;;;;10317109;28;20059;-67
2022/03/12 13:51:04;;;;;;;18.27;8.50;;;;;;;;;;10316795;28;20051;-68
2022/03/12 13:56:15;;;;;;;18.40;8.35;;;;;;;;;;10316316;28;20058;-67
2022/03/12 14:01:30;;;;;;;17.17;8.40;;;;;;;;;;10315382;28;20294;-67
2022/03/12 14:06:40;;;;;;;19.15;9.23;;;;;;;;;;10328917;28;20039;-68
2022/03/12 14:11:48;;;;;;;27.58;13.30;;;;;;;;;;10328249;28;20157;-67
2022/03/12 14:16:55;;;;;;;31.92;14.15;;;;;;;;;;10329564;28;20099;-66
2022/03/12 14:22:00;;;;;;;18.27;9.45;;;;;;;;;;10328666;28;20094;-67
2022/03/12 14:27:06;;;;;;;28.35;14.93;;;;;;;;;;10300049;28;20055;-67
2022/03/12 14:32:09;;;;;;;17.90;10.18;;;;;;;;;;10315406;28;20230;-67
2022/03/12 14:37:14;;;;;;;20.55;9.90;;;;;;;;;;10312940;28;20047;-68
2022/03/12 14:42:17;;;;;;;16.83;8.20;;;;;;;;;;10314433;28;20054;-67
2022/03/12 14:47:20;;;;;;;19.45;8.73;;;;;;;;;;10314426;28;20081;-67
2022/03/12 14:52:25;;;;;;;14.68;8.73;;;;;;;;;;10311719;28;20042;-67
2022/03/12 14:57:29;;;;;;;26.48;11.18;;;;;;;;;;10312249;28;20043;-68
2022/03/12 15:02:37;;;;;;;16.17;9.60;;;;;;;;;;10313633;28;20066;-65
2022/03/12 15:07:46;;;;;;;16.02;8.68;;;;;;;;;;10313015;28;20266;-67
2022/03/12 15:12:53;;;;;;;19.77;10.45;;;;;;;;;;10311797;28;20063;-67
2022/03/12 15:18:08;;;;;;;30.52;16.05;;;;;;;;;;10311191;28;20074;-67
2022/03/12 15:23:13;;;;;;;18.60;9.23;;;;;;;;;;10326122;28;20050;-69
2022/03/12 15:28:18;;;;;;;38.45;16.40;;;;;;;;;;10326370;28;20045;-66
2022/03/12 15:33:28;;;;;;;33.25;12.88;;;;;;;;;;10312422;28;20050;-66
2022/03/12 15:38:32;;;;;;;21.67;11.07;;;;;;;;;;10311287;28;20384;-67
2022/03/12 15:43:36;;;;;;;37.88;18.25;;;;;;;;;;10312658;28;20054;-66
2022/03/12 15:48:39;;;;;;;54.15;26.05;;;;;;;;;;10312302;28;20183;-67
2022/03/12 15:53:43;;;;;;;39.28;19.30;;;;;;;;;;10312157;28;20104;-66
2022/03/12 15:58:48;;;;;;;32.03;15.52;;;;;;;;;;10293400;28;20046;-66
2022/03/12 16:03:50;;;;;;;34.30;14.80;;;;;;;;;;10310601;28;20073;-66
2022/03/12 16:08:57;;;;;;;28.65;13.65;;;;;;;;;;10311135;28;20038;-66
2022/03/12 16:13:59;;;;;;;50.30;23.20;;;;;;;;;;10309205;28;20089;-67
2022/03/12 16:19:01;;;;;;;62.30;27.08;;;;;;;;;;10296578;28;20364;-67
2022/03/12 16:24:06;;;;;;;82.80;30.67;;;;;;;;;;10311116;28;20054;-66
2022/03/12 16:29:10;;;;;;;94.53;32.83;;;;;;;;;;10311680;28;20062;-66
2022/03/12 16:34:12;;;;;;;129.20;47.75;;;;;;;;;;10312433;28;20238;-67
2022/03/12 16:39:16;;;;;;;86.80;31.23;;;;;;;;;;10310561;28;20106;-67
2022/03/12 16:44:20;;;;;;;75.68;30.02;;;;;;;;;;10310910;28;20059;-69
2022/03/12 16:49:22;;;;;;;38.80;18.20;;;;;;;;;;10311381;28;20051;-71
2022/03/12 16:54:26;;;;;;;34.65;17.00;;;;;;;;;;10310574;28;20050;-69
2022/03/12 16:59:29;;;;;;;43.83;17.95;;;;;;;;;;10310347;28;20042;-68
2022/03/12 17:04:31;;;;;;;49.00;22.40;;;;;;;;;;10311470;28;20074;-68
2022/03/12 17:09:36;;;;;;;68.45;30.75;;;;;;;;;;10311060;28;20051;-67
2022/03/12 17:14:38;;;;;;;86.95;34.25;;;;;;;;;;10309533;28;20055;-66
2022/03/12 17:19:40;;;;;;;135.68;42.38;;;;;;;;;;10309614;28;20047;-68
2022/03/12 17:24:46;;;;;;;56.22;21.92;;;;;;;;;;10309713;28;20047;-68
2022/03/12 17:29:49;;;;;;;53.63;20.63;;;;;;;;;;10323927;28;20055;-69
2022/03/12 17:34:53;;;;;;;61.10;26.35;;;;;;;;;;10316009;28;20047;-68
2022/03/12 17:39:58;;;;;;;75.22;30.23;;;;;;;;;;10317536;28;20101;-67
2022/03/12 17:45:01;;;;;;;77.88;31.95;;;;;;;;;;10317648;28;20245;-68
2022/03/12 17:50:05;;;;;;;72.15;31.00;;;;;;;;;;10316950;28;20341;-68
2022/03/12 17:55:11;;;;;;;89.85;34.50;;;;;;;;;;10317039;28;20126;-68
2022/03/12 18:00:19;;;;;;;89.10;31.70;;;;;;;;;;10330767;28;20275;-67
2022/03/12 18:05:24;;;;;;;112.60;43.45;;;;;;;;;;10316253;28;20078;-68
2022/03/12 18:10:31;;;;;;;88.20;34.83;;;;;;;;;;10316359;28;20047;-68
2022/03/12 18:15:35;;;;;;;99.15;39.15;;;;;;;;;;10315554;28;20055;-67
2022/03/12 18:20:39;;;;;;;144.32;51.85;;;;;;;;;;10315360;28;20113;-70
2022/03/12 18:25:49;;;;;;;125.45;48.80;;;;;;;;;;10314059;28;20069;-69
2022/03/12 18:30:52;;;;;;;103.40;41.22;;;;;;;;;;10329305;28;20038;-68
2022/03/12 18:35:54;;;;;;;122.10;49.75;;;;;;;;;;10315555;28;20249;-67
2022/03/12 18:40:59;;;;;;;129.15;44.78;;;;;;;;;;10314710;28;20373;-68
2022/03/12 18:46:02;;;;;;;105.10;36.20;;;;;;;;;;10313151;28;20073;-66
2022/03/12 18:51:05;;;;;;;79.03;31.35;;;;;;;;;;10316155;28;20043;-65
2022/03/12 18:56:09;;;;;;;77.60;32.28;;;;;;;;;;10318576;28;20093;-67
2022/03/12 19:01:12;;;;;;;107.70;37.90;;;;;;;;;;10312678;28;20135;-68
2022/03/12 19:06:14;;;;;;;79.35;30.60;;;;;;;;;;10316149;28;20081;-66
2022/03/12 19:11:18;;;;;;;123.30;37.67;;;;;;;;;;10315257;28;20082;-68
2022/03/12 19:16:22;;;;;;;202.80;55.80;;;;;;;;;;10313151;28;20058;-67
2022/03/12 19:21:24;;;;;;;106.25;37.15;;;;;;;;;;10313277;28;20055;-67
2022/03/12 19:26:28;;;;;;;80.40;29.63;;;;;;;;;;10313100;28;20254;-68
2022/03/12 19:31:33;;;;;;;68.72;27.58;;;;;;;;;;10312728;28;20058;-68
2022/03/12 19:36:38;;;;;;;67.68;28.20;;;;;;;;;;10313259;28;20348;-71
2022/03/12 19:41:45;;;;;;;82.38;29.92;;;;;;;;;;10312624;28;20062;-68
2022/03/12 19:46:48;;;;;;;107.60;37.80;;;;;;;;;;10326234;28;20203;-66
2022/03/12 19:51:50;;;;;;;83.15;32.22;;;;;;;;;;10311682;28;20056;-68
2022/03/12 19:56:54;;;;;;;96.25;37.97;;;;;;;;;;10313367;28;20050;-67
2022/03/12 20:01:56;;;;;;;95.28;37.65;;;;;;;;;;10317098;28;20260;-67
2022/03/12 20:06:59;;;;;;;85.75;33.25;;;;;;;;;;10312546;28;20064;-68
2022/03/12 20:12:04;;;;;;;80.10;32.40;;;;;;;;;;10301384;28;20053;-68
2022/03/12 20:17:06;;;;;;;88.20;35.15;;;;;;;;;;10311609;28;20272;-68
2022/03/12 20:22:10;;;;;;;93.30;36.80;;;;;;;;;;10307620;28;20211;-68
2022/03/12 20:27:20;;;;;;;80.85;32.78;;;;;;;;;;10309618;28;20043;-66
2022/03/12 20:32:25;;;;;;;68.75;26.67;;;;;;;;;;10326683;28;20039;-69
2022/03/12 20:37:28;;;;;;;78.50;30.17;;;;;;;;;;10309783;28;20050;-69
2022/03/12 20:42:32;;;;;;;80.55;32.47;;;;;;;;;;10311473;28;20072;-67
2022/03/12 20:47:35;;;;;;;89.00;35.95;;;;;;;;;;10310697;28;20058;-67
2022/03/12 20:52:37;;;;;;;102.38;39.40;;;;;;;;;;10312608;28;20380;-68
2022/03/12 20:57:41;;;;;;;87.82;38.47;;;;;;;;;;10310973;28;20042;-67
2022/03/12 21:02:44;;;;;;;72.18;30.63;;;;;;;;;;10310720;28;20047;-67
2022/03/12 21:07:46;;;;;;;74.35;30.33;;;;;;;;;;10316474;28;20408;-65
2022/03/12 21:12:50;;;;;;;85.82;31.75;;;;;;;;;;10316338;28;20047;-67
2022/03/12 21:17:52;;;;;;;88.25;33.72;;;;;;;;;;10319803;28;20070;-67
2022/03/12 21:22:55;;;;;;;94.68;38.60;;;;;;;;;;10317128;28;20047;-66
2022/03/12 21:28:04;;;;;;;97.15;36.13;;;;;;;;;;10317780;28;20051;-67
2022/03/12 21:33:08;;;;;;;79.30;33.33;;;;;;;;;;10331746;28;20346;-67
2022/03/12 21:38:11;;;;;;;83.32;33.65;;;;;;;;;;10317370;28;20077;-67
2022/03/12 21:43:16;;;;;;;89.82;35.97;;;;;;;;;;10317765;28;20066;-68
2022/03/12 21:48:18;;;;;;;98.20;36.77;;;;;;;;;;10317938;28;20134;-68
2022/03/12 21:53:22;;;;;;;89.30;35.38;;;;;;;;;;10317977;28;20039;-67
2022/03/12 21:58:26;;;;;;;82.90;33.97;;;;;;;;;;10316128;28;20038;-68
2022/03/12 22:03:28;;;;;;;87.47;35.50;;;;;;;;;;10318035;28;20338;-68
2022/03/12 22:08:31;;;;;;;109.07;46.05;;;;;;;;;;10316152;28;20062;-68
2022/03/12 22:13:35;;;;;;;105.90;41.90;;;;;;;;;;10316713;28;20059;-67
2022/03/12 22:18:37;;;;;;;108.68;42.20;;;;;;;;;;10298399;28;20412;-68
2022/03/12 22:23:40;;;;;;;124.70;50.20;;;;;;;;;;10317161;28;20043;-67
2022/03/12 22:28:44;;;;;;;108.00;45.10;;;;;;;;;;10315982;28;20062;-69
2022/03/12 22:33:46;;;;;;;110.35;46.40;;;;;;;;;;10316921;28;20066;-68
2022/03/12 22:38:49;;;;;;;119.38;47.22;;;;;;;;;;10314724;28;20066;-67
2022/03/12 22:43:54;;;;;;;132.23;49.95;;;;;;;;;;10316266;28;20398;-66
2022/03/12 22:48:57;;;;;;;119.35;44.05;;;;;;;;;;10314578;28;20054;-67
2022/03/12 22:53:59;;;;;;;94.65;37.83;;;;;;;;;;10315619;28;20058;-68
2022/03/12 22:59:05;;;;;;;85.85;35.60;;;;;;;;;;10275079;29;20062;-68
2022/03/12 23:09:33;;;;;;;97.75;37.30;;;;;;;;;;10328243;28;20089;-68
2022/03/12 23:14:47;;;;;;;90.43;36.15;;;;;;;;;;10315665;28;20051;-68
2022/03/12 23:19:54;;;;;;;98.18;38.95;;;;;;;;;;10313884;28;20049;-67
2022/03/12 23:25:03;;;;;;;95.80;37.28;;;;;;;;;;10320544;28;20047;-67
2022/03/12 23:30:11;;;;;;;89.45;36.25;;;;;;;;;;10313102;28;20321;-68
2022/03/12 23:35:15;;;;;;;92.75;36.20;;;;;;;;;;10321025;28;20054;-66
2022/03/12 23:40:23;;;;;;;87.65;33.88;;;;;;;;;;10312401;28;20070;-66
2022/03/12 23:45:29;;;;;;;83.72;34.85;;;;;;;;;;10325624;28;20050;-69
2022/03/12 23:50:31;;;;;;;;;;;;;;;;;;10312736;28;20486;-68
2022/03/12 23:55:38;;;;;;;88.47;35.85;;;;;;;;;;10311333;28;19924;-67
